Flight Track Log - Related Links

Times and Time Zones

All times are in EDT time to prevent confusion due to time zone crossing. See the SKW5500 flight status page for this flight to view local times or setup timezone preferences in your user account.

Time Position Orientation Groundspeed Altitude Reporting Facility
EDT Latitude Longitude Course Direction KTS MPH feet Rate Location/Type
Sat 06:15:59 PM 39.2706 -106.9250 301° West 219 252 11,300  Level Denver Center
Sat 06:17:00 PM 39.4089 -106.7994 101° East  Level FlightAware Approximate
Sat 06:17:01 PM 39.3164 -106.9669 325° Northwest 246 283 14,000  Level Denver Center
Sat 06:18:00 PM 39.3902 -106.6777 101° East  Level FlightAware Approximate
Sat 06:18:03 PM 39.3414 -106.8800 70° East 285 328 16,500  Level Denver Center
Sat 06:19:00 PM 39.3681 -106.5570 104° East  Level FlightAware Approximate
Sat 06:19:04 PM 39.3447 -106.7411 88° East 326 375 19,500  Level Denver Center
Sat 06:20:00 PM 39.3371 -106.4408 123° Southeast  Level FlightAware Approximate
Sat 06:20:06 PM 39.3481 -106.6214 88° East 343 395 22,100  Level Denver Center
Sat 06:21:07 PM 39.3392 -106.4736 94° East 369 425 24,800 1,415 Climbing Denver Center
Sat 06:22:09 PM 39.3458 -106.3425 86° East 380 437 25,000 97 Climbing Denver Center
Sat 06:23:11 PM 39.3544 -106.2156 85° East 373 429 25,000  Level Denver Center
Sat 06:24:12 PM 39.3617 -106.0750 86° East 356 410 25,000 -244 Level Denver Center
Sat 06:25:14 PM 39.3692 -105.9467 86° East 355 409 24,500 -683 Descending Denver Center
Sat 06:26:15 PM 39.3764 -105.8150 86° East 360 414 23,600 -1,073 Descending Denver Center
Sat 06:27:17 PM 39.3850 -105.6894 85° East 351 404 22,300 -1,645 Descending Denver Center
Sat 06:28:19 PM 39.4436 -105.5783 56° Northeast 341 392 20,200 -1,854 Descending Denver Center
Sat 06:29:20 PM 39.4489 -105.4586 87° East 338 389 18,500 -1,707 Descending Denver Center
Sat 06:30:22 PM 39.4319 -105.3358 100° East 346 398 16,700 -1,512 Descending Denver Center
Sat 06:31:23 PM 39.4200 -105.2081 97° East 336 387 15,400 -1,122 Descending Denver Center
Sat 06:32:25 PM 39.4239 -105.0956 87° East 323 372 14,400 -780 Descending Denver Center
Sat 06:33:26 PM 39.4361 -104.9936 81° East 289 333 13,800 -585 Descending Denver Center
Sat 06:34:28 PM 39.4636 -104.9003 69° East 258 297 13,200 -726 Descending Denver Center
Sat 06:35:30 PM 39.4894 -104.8161 68° East 253 291 12,300 -1,024 Descending Denver Center
Sat 06:36:31 PM 39.5456 -104.7644 35° Northeast 250 288 11,100 -1,220 Descending Denver Center
Sat 06:37:33 PM 39.6097 -104.7206 28° Northeast 244 281 9,800 -1,171 Descending Denver Center
Sat 06:38:34 PM 39.6681 -104.6836 26° Northeast 234 269 8,700 -1,082 Descending Denver Center

Login

Don't have an account? Register now (free) for customized features, flight alerts, and more!